createdAt,value
2019-03-19T00:01:34.567Z,5.40
2019-03-19T00:04:04.992Z,5.40
2019-03-19T00:06:34.433Z,5.40
2019-03-19T00:09:05.519Z,5.30
2019-03-19T00:11:34.979Z,5.10
2019-03-19T00:14:04.716Z,5.00
2019-03-19T00:16:34.376Z,5.10
2019-03-19T00:19:03.905Z,5.20
2019-03-19T00:21:33.440Z,5.30
2019-03-19T00:24:03.199Z,5.40
2019-03-19T00:26:33.312Z,5.50
2019-03-19T00:29:03.011Z,5.50
2019-03-19T00:31:32.745Z,5.50
2019-03-19T00:34:02.204Z,5.50
2019-03-19T00:36:32.167Z,5.50
2019-03-19T00:39:02.096Z,5.50
2019-03-19T00:41:31.634Z,5.40
2019-03-19T00:44:01.127Z,5.40
2019-03-19T00:46:30.596Z,5.30
2019-03-19T00:49:00.970Z,5.30
2019-03-19T00:51:30.402Z,5.20
2019-03-19T00:53:59.880Z,5.10
2019-03-19T00:56:29.413Z,5.10
2019-03-19T00:58:58.867Z,5.00
2019-03-19T01:01:28.377Z,4.90
2019-03-19T01:03:57.949Z,4.90
2019-03-19T01:06:27.512Z,4.90
2019-03-19T01:08:57.264Z,5.00
2019-03-19T01:11:26.823Z,5.00
2019-03-19T01:13:56.423Z,5.00
2019-03-19T01:16:26.192Z,5.00
2019-03-19T01:18:55.655Z,5.00
2019-03-19T01:21:25.222Z,5.00
2019-03-19T01:23:54.775Z,4.80
2019-03-19T01:26:24.299Z,4.90
2019-03-19T01:28:53.867Z,4.90
2019-03-19T01:31:23.537Z,4.80
2019-03-19T01:33:53.151Z,4.80
2019-03-19T01:36:22.602Z,4.80
2019-03-19T01:38:52.767Z,4.80
2019-03-19T01:41:22.229Z,4.70
2019-03-19T01:43:51.661Z,4.70
2019-03-19T01:46:21.087Z,4.70
